Time;durP1;ratioP1;P1;durP2;ratioP2;P2;SDS_P1;SDS_P2;PMS_P1;PMS_P2;Temp;Humidity;BMP_temperature;BMP_pressure;BME280_temperature;BME280_humidity;BME280_pressure;Samples;Min_cycle;Max_cycle;Signal;HPM_P1;HPM_P2
2021/10/19 00:00:33;;;;;;;23.03;18.10;;;9.50;99.90;;;;;;5095303;28;20291;-66
2021/10/19 00:03:01;;;;;;;21.37;17.27;;;9.50;99.90;;;;;;5095198;28;20234;-66
2021/10/19 00:05:30;;;;;;;23.57;18.40;;;9.50;99.90;;;;;;5095098;28;20224;-66
2021/10/19 00:07:58;;;;;;;24.33;18.60;;;9.40;99.90;;;;;;5095282;28;20667;-66
2021/10/19 00:10:26;;;;;;;24.90;18.77;;;9.40;99.90;;;;;;5094497;28;20761;-66
2021/10/19 00:12:54;;;;;;;20.67;17.20;;;9.40;99.90;;;;;;5094835;28;20679;-65
2021/10/19 00:15:22;;;;;;;23.10;18.03;;;9.40;99.90;;;;;;5094904;28;20220;-65
2021/10/19 00:17:50;;;;;;;23.97;18.67;;;9.40;99.90;;;;;;5094796;28;20223;-65
2021/10/19 00:20:18;;;;;;;25.13;18.97;;;9.40;99.90;;;;;;5094578;28;20754;-65
2021/10/19 00:22:47;;;;;;;20.90;17.27;;;9.50;99.90;;;;;;5094832;28;20286;-64
2021/10/19 00:25:17;;;;;;;26.43;18.53;;;9.50;99.90;;;;;;5094413;28;20289;-65
2021/10/19 00:27:45;;;;;;;22.57;17.57;;;9.50;99.90;;;;;;5094513;28;20654;-65
2021/10/19 00:30:13;;;;;;;23.37;17.87;;;9.50;99.90;;;;;;5094629;28;20286;-66
2021/10/19 00:32:42;;;;;;;22.97;17.07;;;9.50;99.90;;;;;;5094391;28;20204;-65
2021/10/19 00:35:10;;;;;;;21.53;17.40;;;9.50;99.90;;;;;;5094674;28;20248;-65
2021/10/19 00:37:38;;;;;;;23.20;17.77;;;9.60;99.90;;;;;;5093310;28;20295;-64
2021/10/19 00:40:09;;;;;;;22.80;16.97;;;9.60;99.90;;;;;;5094455;28;20227;-65
2021/10/19 00:42:37;;;;;;;23.40;17.60;;;9.50;99.90;;;;;;5094272;28;20237;-66
2021/10/19 00:45:07;;;;;;;23.63;17.60;;;9.50;99.90;;;;;;5094157;28;20239;-66
2021/10/19 00:47:35;;;;;;;21.87;17.60;;;9.60;99.90;;;;;;5094412;28;20200;-65
2021/10/19 00:50:04;;;;;;;22.13;17.47;;;9.60;99.90;;;;;;5094120;28;20303;-65
2021/10/19 00:52:32;;;;;;;26.10;17.43;;;9.60;99.90;;;;;;5094505;28;20231;-65
2021/10/19 00:55:03;;;;;;;21.93;17.10;;;9.60;99.90;;;;;;5093991;28;20219;-65
2021/10/19 00:57:33;;;;;;;19.53;16.03;;;9.60;99.90;;;;;;5094348;28;20188;-65
2021/10/19 01:00:01;;;;;;;21.87;17.50;;;9.70;99.90;;;;;;5094610;28;20195;-66
2021/10/19 01:02:29;;;;;;;21.70;16.50;;;9.60;99.90;;;;;;5093740;28;20298;-66
2021/10/19 01:04:57;;;;;;;21.90;16.10;;;9.70;99.90;;;;;;5094033;28;20248;-65
2021/10/19 01:07:25;;;;;;;21.60;16.70;;;9.60;99.90;;;;;;5093989;28;20682;-64
2021/10/19 01:09:53;;;;;;;22.27;16.37;;;9.70;99.90;;;;;;5093637;28;20590;-65
2021/10/19 01:12:21;;;;;;;20.03;15.60;;;9.70;99.90;;;;;;5093548;28;20284;-65
2021/10/19 01:14:50;;;;;;;20.70;16.57;;;9.70;99.90;;;;;;5093440;28;20227;-65
2021/10/19 01:17:18;;;;;;;19.87;15.37;;;9.70;99.90;;;;;;5093661;28;20561;-65
2021/10/19 01:19:49;;;;;;;18.73;15.90;;;9.70;99.90;;;;;;5093798;28;20201;-66
2021/10/19 01:22:18;;;;;;;18.60;15.47;;;9.70;99.90;;;;;;5093589;28;20188;-65
2021/10/19 01:24:46;;;;;;;23.20;17.50;;;9.60;99.90;;;;;;5093661;28;20232;-65
2021/10/19 01:27:13;;;;;;;21.10;17.03;;;9.60;99.90;;;;;;5093331;28;20554;-65
2021/10/19 01:29:41;;;;;;;21.20;15.90;;;9.60;99.90;;;;;;5093126;28;20299;-65
2021/10/19 01:32:09;;;;;;;19.80;14.57;;;9.60;99.90;;;;;;5093259;28;20702;-65
2021/10/19 01:34:37;;;;;;;21.83;17.07;;;9.70;99.90;;;;;;5093489;28;20200;-65
2021/10/19 01:37:06;;;;;;;20.23;16.07;;;9.60;99.90;;;;;;5093387;28;20216;-65
2021/10/19 01:39:34;;;;;;;20.57;15.57;;;9.60;99.90;;;;;;5092983;28;20785;-66
2021/10/19 01:42:02;;;;;;;18.53;14.60;;;9.60;99.90;;;;;;5093337;28;20196;-65
2021/10/19 01:44:30;;;;;;;19.27;15.57;;;9.60;99.90;;;;;;5093162;28;20203;-65
2021/10/19 01:46:57;;;;;;;19.47;15.20;;;9.70;99.90;;;;;;5093239;28;20269;-65
2021/10/19 01:49:25;;;;;;;21.27;16.13;;;9.70;99.90;;;;;;5092707;28;20218;-65
2021/10/19 01:51:54;;;;;;;21.27;16.00;;;9.70;99.90;;;;;;5092899;28;20243;-65
2021/10/19 01:54:23;;;;;;;21.93;15.67;;;9.70;99.90;;;;;;5093019;28;20286;-65
2021/10/19 01:56:50;;;;;;;20.13;15.57;;;9.70;99.90;;;;;;5092877;28;20822;-65
2021/10/19 01:59:18;;;;;;;21.17;15.33;;;9.70;99.90;;;;;;5092807;28;20253;-66
2021/10/19 02:01:48;;;;;;;20.50;15.47;;;9.70;99.90;;;;;;5092729;28;20663;-66
2021/10/19 02:04:16;;;;;;;22.03;15.17;;;9.70;99.90;;;;;;5093270;28;20196;-66
2021/10/19 02:06:44;;;;;;;21.50;15.80;;;9.70;99.90;;;;;;5092544;28;20616;-65
2021/10/19 02:09:12;;;;;;;17.63;14.30;;;9.60;99.90;;;;;;5092823;28;20200;-66
2021/10/19 02:11:41;;;;;;;22.40;15.90;;;9.60;99.90;;;;;;5092378;28;20311;-66
2021/10/19 02:14:09;;;;;;;19.10;15.20;;;9.60;99.90;;;;;;5092659;28;20196;-66
2021/10/19 02:16:37;;;;;;;19.30;15.67;;;9.50;99.90;;;;;;5092585;28;20220;-65
2021/10/19 02:19:05;;;;;;;19.53;15.23;;;9.50;99.90;;;;;;5092325;28;20678;-66
2021/10/19 02:21:32;;;;;;;18.63;14.67;;;9.50;99.90;;;;;;5092650;28;20206;-66
2021/10/19 02:24:00;;;;;;;20.30;15.27;;;9.50;99.90;;;;;;5092615;28;20616;-66
2021/10/19 02:26:28;;;;;;;19.33;15.50;;;9.50;99.90;;;;;;5092493;28;20211;-65
2021/10/19 02:28:57;;;;;;;18.53;15.03;;;9.50;99.90;;;;;;5092192;28;20742;-65
2021/10/19 02:31:25;;;;;;;19.00;15.20;;;9.50;99.90;;;;;;5092447;28;20295;-66
2021/10/19 02:33:53;;;;;;;18.30;15.60;;;9.60;99.90;;;;;;5092322;28;20204;-66
2021/10/19 02:36:21;;;;;;;19.50;14.50;;;9.50;99.90;;;;;;5092356;28;20228;-66
2021/10/19 02:38:49;;;;;;;18.27;14.83;;;9.60;99.90;;;;;;5092475;28;20196;-65
2021/10/19 02:41:17;;;;;;;18.40;15.07;;;9.50;99.90;;;;;;5092240;28;20196;-66
2021/10/19 02:43:45;;;;;;;20.23;15.43;;;9.60;99.90;;;;;;5092200;28;20650;-65
2021/10/19 02:46:14;;;;;;;17.97;15.23;;;9.50;99.90;;;;;;5092187;28;20290;-67
2021/10/19 02:48:42;;;;;;;18.33;14.67;;;9.50;99.90;;;;;;5092228;28;20555;-66
2021/10/19 02:51:10;;;;;;;17.00;13.70;;;9.50;99.90;;;;;;5092258;28;20575;-66
2021/10/19 02:53:38;;;;;;;17.67;14.20;;;9.50;99.90;;;;;;5092251;28;20282;-66
2021/10/19 02:56:06;;;;;;;19.47;15.20;;;9.50;99.90;;;;;;5091716;28;20222;-66
2021/10/19 02:58:34;;;;;;;19.43;14.43;;;9.50;99.90;;;;;;5092303;28;20206;-66
2021/10/19 03:01:01;;;;;;;16.23;13.33;;;9.50;99.90;;;;;;5093498;28;20196;-65
2021/10/19 03:03:31;;;;;;;18.07;14.40;;;9.50;99.90;;;;;;5096011;28;20691;-66
2021/10/19 03:05:59;;;;;;;19.20;14.10;;;9.60;99.90;;;;;;5096357;28;20287;-65
2021/10/19 03:08:27;;;;;;;17.43;14.47;;;9.60;99.90;;;;;;5096359;28;20287;-66
2021/10/19 03:10:55;;;;;;;17.37;13.27;;;9.70;99.90;;;;;;5095597;28;20322;-65
2021/10/19 03:13:24;;;;;;;16.47;13.23;;;9.70;99.90;;;;;;5096157;28;20324;-65
2021/10/19 03:16:12;;;;;;;17.23;14.27;;;9.70;99.90;;;;;;5095946;28;20212;-66
2021/10/19 03:18:41;;;;;;;18.00;13.37;;;9.70;99.90;;;;;;5095776;28;20577;-66
2021/10/19 03:21:09;;;;;;;14.30;12.47;;;9.70;99.90;;;;;;5096168;28;20206;-67
2021/10/19 03:23:37;;;;;;;18.00;13.53;;;9.80;99.90;;;;;;5096016;28;20328;-66
2021/10/19 03:26:05;;;;;;;18.90;14.13;;;9.80;99.90;;;;;;5095579;28;20652;-66
2021/10/19 03:28:33;;;;;;;16.40;12.67;;;9.80;99.90;;;;;;5095872;28;20200;-67
2021/10/19 03:31:01;;;;;;;16.43;13.33;;;9.80;99.90;;;;;;5095703;28;20294;-66
2021/10/19 03:33:29;;;;;;;17.30;13.50;;;9.80;99.90;;;;;;5095459;28;20663;-65
2021/10/19 03:35:59;;;;;;;18.63;14.30;;;9.70;99.90;;;;;;5095941;28;20291;-66
2021/10/19 03:38:26;;;;;;;16.33;13.03;;;9.70;99.90;;;;;;5095758;28;20258;-66
2021/10/19 03:40:54;;;;;;;16.70;13.70;;;9.70;99.90;;;;;;5095318;28;20257;-66
2021/10/19 03:43:22;;;;;;;17.80;14.60;;;9.70;99.90;;;;;;5095557;28;20287;-66
2021/10/19 03:45:51;;;;;;;19.23;14.27;;;9.70;99.90;;;;;;5095203;28;20204;-65
2021/10/19 03:48:18;;;;;;;20.87;14.07;;;9.70;99.90;;;;;;5095229;28;20214;-65
2021/10/19 03:50:46;;;;;;;16.10;13.80;;;9.70;99.90;;;;;;5095298;28;20283;-65
2021/10/19 03:53:16;;;;;;;17.57;13.67;;;9.60;99.90;;;;;;5095124;28;20694;-66
2021/10/19 03:55:46;;;;;;;20.53;15.53;;;9.70;99.90;;;;;;5095108;28;20235;-65
2021/10/19 03:58:14;;;;;;;18.30;14.40;;;9.70;99.90;;;;;;5095196;28;20294;-66
2021/10/19 04:00:42;;;;;;;18.27;13.83;;;9.80;99.90;;;;;;5095162;28;20283;-65
2021/10/19 04:03:10;;;;;;;17.70;13.60;;;9.80;99.90;;;;;;5095120;28;20239;-66
2021/10/19 04:05:37;;;;;;;18.57;13.80;;;9.80;99.90;;;;;;5095182;28;20200;-66
2021/10/19 04:08:05;;;;;;;18.03;14.27;;;9.80;99.90;;;;;;5095100;28;20204;-66
2021/10/19 04:10:34;;;;;;;19.37;14.73;;;9.80;99.90;;;;;;5094663;28;20671;-66
2021/10/19 04:13:02;;;;;;;18.50;14.33;;;10.00;99.90;;;;;;5094851;28;20196;-66
2021/10/19 04:15:30;;;;;;;20.03;14.53;;;9.90;99.90;;;;;;5094902;28;20200;-66
2021/10/19 04:17:58;;;;;;;21.20;14.67;;;9.90;99.90;;;;;;5094542;28;20807;-65
2021/10/19 04:20:26;;;;;;;18.83;14.27;;;10.00;99.90;;;;;;5094885;28;20207;-68
2021/10/19 04:22:54;;;;;;;19.37;14.47;;;9.90;99.90;;;;;;5094524;28;20211;-65
2021/10/19 04:25:22;;;;;;;20.40;15.13;;;10.00;99.90;;;;;;5094729;28;20200;-65
2021/10/19 04:27:51;;;;;;;20.00;14.83;;;9.90;99.90;;;;;;5094921;28;20295;-66
2021/10/19 04:30:20;;;;;;;21.53;14.53;;;9.90;99.90;;;;;;5094580;28;20286;-66
2021/10/19 04:32:48;;;;;;;18.07;13.90;;;9.90;99.90;;;;;;5094395;28;20648;-66
2021/10/19 04:35:16;;;;;;;19.17;15.00;;;10.00;99.90;;;;;;5094488;28;20214;-66
2021/10/19 04:37:43;;;;;;;18.60;14.50;;;9.90;99.90;;;;;;5094450;28;20216;-66
2021/10/19 04:40:13;;;;;;;19.67;15.50;;;9.90;99.90;;;;;;5094617;28;20208;-67
2021/10/19 04:42:41;;;;;;;18.10;14.63;;;10.00;99.90;;;;;;5095240;28;20275;-66
2021/10/19 04:45:11;;;;;;;20.60;16.33;;;10.00;99.90;;;;;;5094667;28;20238;-65
2021/10/19 04:47:39;;;;;;;20.40;15.53;;;10.00;99.90;;;;;;5094834;28;20198;-66
2021/10/19 04:50:07;;;;;;;21.33;16.17;;;10.00;99.90;;;;;;5095112;28;20562;-66
2021/10/19 04:52:35;;;;;;;20.57;15.90;;;10.00;99.90;;;;;;5094398;28;20204;-64
2021/10/19 04:55:04;;;;;;;20.07;15.33;;;10.00;99.90;;;;;;5094250;28;20667;-65
2021/10/19 04:57:32;;;;;;;19.20;15.50;;;10.00;99.90;;;;;;5094616;28;20299;-65
2021/10/19 05:00:00;;;;;;;19.30;15.07;;;10.00;99.90;;;;;;5094407;28;20282;-66
2021/10/19 05:02:29;;;;;;;20.47;16.10;;;10.00;99.90;;;;;;5094510;28;20239;-66
2021/10/19 05:04:57;;;;;;;19.40;14.57;;;10.10;99.90;;;;;;5094690;28;20202;-67
2021/10/19 05:07:25;;;;;;;21.37;15.87;;;10.20;99.90;;;;;;5094280;28;20618;-64
2021/10/19 05:09:52;;;;;;;23.00;16.63;;;10.20;99.90;;;;;;5094528;28;20204;-66
2021/10/19 05:12:22;;;;;;;21.53;16.33;;;10.20;99.90;;;;;;5094087;28;20234;-65
2021/10/19 05:14:49;;;;;;;19.10;15.93;;;10.20;99.90;;;;;;5094381;28;20234;-65
2021/10/19 05:17:17;;;;;;;19.47;15.97;;;10.20;99.90;;;;;;5093670;28;20222;-66
2021/10/19 05:19:46;;;;;;;21.47;16.73;;;10.20;99.90;;;;;;5093157;28;20204;-65
2021/10/19 05:22:14;;;;;;;21.07;16.07;;;10.20;99.90;;;;;;5093240;28;20695;-65
2021/10/19 05:24:42;;;;;;;20.67;16.83;;;10.20;99.90;;;;;;5092454;28;20715;-65
2021/10/19 05:27:10;;;;;;;21.33;16.70;;;10.20;99.90;;;;;;5093694;28;20296;-65
2021/10/19 05:29:38;;;;;;;23.77;17.33;;;10.20;99.90;;;;;;5093114;28;20222;-66
2021/10/19 05:32:06;;;;;;;22.70;17.43;;;10.20;99.90;;;;;;5093255;28;20214;-67
2021/10/19 05:34:35;;;;;;;21.87;16.73;;;10.20;99.90;;;;;;5093455;28;20200;-66
2021/10/19 05:37:04;;;;;;;21.37;16.60;;;10.20;99.90;;;;;;5093193;28;20200;-67
2021/10/19 05:39:32;;;;;;;23.00;16.47;;;10.20;99.90;;;;;;5093263;28;20200;-65
2021/10/19 05:42:00;;;;;;;21.13;16.10;;;10.40;99.90;;;;;;5093369;28;20218;-66
2021/10/19 05:44:28;;;;;;;21.43;15.93;;;10.40;99.90;;;;;;5092971;28;20706;-65
2021/10/19 05:46:56;;;;;;;21.80;16.10;;;10.30;99.90;;;;;;5092962;28;20200;-66
2021/10/19 05:49:24;;;;;;;23.33;16.10;;;10.50;99.90;;;;;;5093573;28;20214;-65
2021/10/19 05:51:55;;;;;;;19.03;14.50;;;10.40;99.90;;;;;;5093556;28;20640;-65
2021/10/19 05:54:25;;;;;;;20.13;15.53;;;10.40;99.90;;;;;;5093587;28;20206;-66
2021/10/19 05:56:54;;;;;;;24.20;15.97;;;10.50;99.90;;;;;;5093543;28;20295;-65
2021/10/19 05:59:22;;;;;;;21.20;16.37;;;10.60;99.90;;;;;;5093578;28;20226;-64
2021/10/19 06:01:50;;;;;;;24.97;16.53;;;10.60;99.90;;;;;;5093321;28;20294;-65
2021/10/19 06:04:18;;;;;;;21.57;16.60;;;10.50;99.90;;;;;;5093286;28;20908;-65
2021/10/19 06:06:54;;;;;;;21.60;16.20;;;10.60;99.90;;;;;;5093454;28;20235;-64
2021/10/19 06:09:22;;;;;;;20.73;15.40;;;10.60;99.90;;;;;;5093025;28;20707;-65
2021/10/19 06:11:52;;;;;;;22.97;17.13;;;10.60;99.90;;;;;;5092932;28;20232;-65
2021/10/19 06:14:22;;;;;;;21.07;15.97;;;10.50;99.90;;;;;;5093253;28;20263;-65
2021/10/19 06:16:50;;;;;;;18.37;14.20;;;10.60;99.90;;;;;;5093057;28;20242;-65
2021/10/19 06:19:18;;;;;;;20.57;15.93;;;10.60;99.90;;;;;;5092978;28;20228;-64
2021/10/19 06:21:47;;;;;;;20.30;15.43;;;10.60;99.90;;;;;;5093180;28;20196;-64
2021/10/19 06:24:15;;;;;;;21.50;15.90;;;10.60;99.90;;;;;;5093187;28;20208;-64
2021/10/19 06:26:43;;;;;;;20.23;15.53;;;10.60;99.90;;;;;;5092883;28;20235;-64
2021/10/19 06:29:14;;;;;;;21.17;15.20;;;10.60;99.90;;;;;;5093182;28;20228;-64
2021/10/19 06:31:42;;;;;;;18.10;14.93;;;10.70;99.90;;;;;;5093040;28;20189;-64
2021/10/19 06:34:10;;;;;;;19.20;15.33;;;10.80;99.90;;;;;;5092736;28;20231;-64
2021/10/19 06:36:39;;;;;;;18.73;15.23;;;10.80;99.90;;;;;;5093092;28;20222;-64
2021/10/19 06:39:07;;;;;;;20.33;15.53;;;10.90;99.90;;;;;;5092928;28;20646;-64
2021/10/19 06:41:35;;;;;;;19.73;14.83;;;11.00;99.90;;;;;;5092996;28;20307;-64
2021/10/19 06:44:03;;;;;;;21.47;14.40;;;11.00;99.90;;;;;;5092743;28;20294;-64
2021/10/19 06:46:52;;;;;;;18.87;15.57;;;11.10;99.90;;;;;;5092695;28;20196;-64
2021/10/19 06:49:20;;;;;;;19.77;14.63;;;11.10;99.90;;;;;;5092389;28;20290;-64
2021/10/19 06:51:48;;;;;;;20.00;14.43;;;11.20;99.90;;;;;;5092099;28;20367;-65
2021/10/19 06:54:16;;;;;;;18.03;14.17;;;11.20;99.90;;;;;;5092512;28;20196;-64
2021/10/19 06:56:43;;;;;;;17.93;14.57;;;11.20;99.90;;;;;;5092868;28;20207;-67
2021/10/19 06:59:11;;;;;;;19.10;14.47;;;11.20;99.90;;;;;;5092670;28;20277;-67
2021/10/19 07:01:39;;;;;;;18.20;14.57;;;11.30;99.90;;;;;;5092458;28;20204;-68
2021/10/19 07:04:09;;;;;;;17.93;13.57;;;11.30;99.90;;;;;;5092293;28;20203;-68
2021/10/19 07:06:36;;;;;;;16.73;13.40;;;11.30;99.90;;;;;;5092613;28;20200;-67
2021/10/19 07:09:04;;;;;;;16.90;14.03;;;11.30;99.90;;;;;;5092102;28;20291;-66
2021/10/19 07:11:33;;;;;;;18.63;13.77;;;11.40;99.90;;;;;;5091913;28;20314;-67
2021/10/19 07:14:01;;;;;;;20.43;14.13;;;11.50;99.90;;;;;;5092025;28;20632;-66
2021/10/19 07:16:29;;;;;;;16.40;13.70;;;11.60;99.90;;;;;;5091969;28;20731;-67
2021/10/19 07:18:57;;;;;;;17.97;13.77;;;11.50;99.90;;;;;;5092195;28;20219;-67
2021/10/19 07:21:26;;;;;;;19.63;13.27;;;11.60;99.90;;;;;;5092506;28;20200;-67
2021/10/19 07:23:54;;;;;;;17.27;12.73;;;11.60;99.90;;;;;;5092642;28;20295;-67
2021/10/19 07:26:21;;;;;;;19.03;12.57;;;11.60;99.90;;;;;;5092322;28;20204;-68
2021/10/19 07:28:49;;;;;;;15.63;12.67;;;11.70;99.90;;;;;;5092311;28;20211;-68
2021/10/19 07:31:17;;;;;;;15.23;12.33;;;11.80;99.90;;;;;;5092138;28;20294;-67
2021/10/19 07:33:45;;;;;;;17.13;13.57;;;11.90;99.90;;;;;;5092310;28;20294;-67
2021/10/19 07:36:13;;;;;;;18.67;14.90;;;12.00;99.90;;;;;;5092408;28;20236;-67
2021/10/19 07:38:42;;;;;;;16.63;13.83;;;12.10;99.90;;;;;;5092232;28;20315;-67
2021/10/19 07:41:10;;;;;;;19.47;12.40;;;12.10;99.90;;;;;;5091618;28;20203;-67
2021/10/19 07:43:38;;;;;;;15.40;12.80;;;12.20;99.90;;;;;;5091674;28;20278;-67
2021/10/19 07:46:06;;;;;;;15.23;12.37;;;12.20;99.90;;;;;;5090937;28;20200;-67
2021/10/19 07:48:33;;;;;;;17.20;13.00;;;12.30;99.90;;;;;;5095365;28;20211;-67
2021/10/19 07:51:01;;;;;;;12.83;11.50;;;12.40;99.90;;;;;;5095443;28;20287;-67
2021/10/19 07:53:29;;;;;;;14.47;12.10;;;12.40;99.90;;;;;;5095330;28;20699;-66
2021/10/19 07:55:59;;;;;;;14.93;11.37;;;12.40;99.90;;;;;;5095394;28;20200;-67
2021/10/19 07:58:27;;;;;;;16.60;12.73;;;12.50;99.90;;;;;;5095268;28;20287;-65
2021/10/19 08:00:55;;;;;;;13.17;11.10;;;12.50;99.90;;;;;;5094921;28;20742;-65
2021/10/19 08:03:23;;;;;;;15.73;12.57;;;12.60;99.90;;;;;;5095008;28;20200;-65
2021/10/19 08:05:51;;;;;;;14.83;11.60;;;12.60;99.90;;;;;;5095409;28;20230;-63
2021/10/19 08:08:19;;;;;;;15.03;11.90;;;12.70;99.90;;;;;;5095128;28;20567;-64
2021/10/19 08:10:48;;;;;;;14.93;12.40;;;12.70;99.90;;;;;;5094724;28;20220;-64
2021/10/19 08:13:18;;;;;;;13.80;11.53;;;12.90;99.90;;;;;;5095004;28;20202;-63
2021/10/19 08:15:47;;;;;;;15.37;12.07;;;12.90;99.90;;;;;;5094712;28;20184;-64
2021/10/19 08:18:15;;;;;;;14.43;11.77;;;12.90;99.90;;;;;;5094893;28;20200;-64
2021/10/19 08:20:43;;;;;;;15.77;13.20;;;12.90;99.90;;;;;;5094912;28;20216;-65
2021/10/19 08:23:11;;;;;;;15.07;11.43;;;12.90;99.90;;;;;;5094744;28;20307;-64
2021/10/19 08:25:40;;;;;;;14.07;11.10;;;13.00;99.90;;;;;;5094564;28;20200;-64
2021/10/19 08:28:08;;;;;;;14.23;12.13;;;13.10;99.90;;;;;;5093578;28;20290;-64
2021/10/19 08:30:37;;;;;;;15.67;11.97;;;13.20;99.90;;;;;;5094092;28;20720;-64
2021/10/19 08:33:05;;;;;;;14.30;11.95;;;13.30;99.90;;;;;;5094533;28;20287;-65
2021/10/19 08:35:32;;;;;;;14.30;11.63;;;13.40;99.90;;;;;;5092993;28;20239;-65
2021/10/19 08:38:03;;;;;;;14.00;12.07;;;13.50;99.90;;;;;;5094544;28;20196;-64
2021/10/19 08:40:31;;;;;;;16.08;12.88;;;13.60;99.90;;;;;;5094218;28;20306;-64
2021/10/19 08:42:59;;;;;;;16.50;12.57;;;13.50;99.90;;;;;;5094455;28;20625;-64
2021/10/19 08:45:30;;;;;;;20.43;13.03;;;13.60;99.90;;;;;;5094101;28;20303;-64
2021/10/19 08:48:00;;;;;;;14.50;12.32;;;13.70;99.90;;;;;;5093836;28;20606;-64
2021/10/19 08:50:29;;;;;;;16.85;12.80;;;13.70;99.90;;;;;;5094218;28;20187;-64
2021/10/19 08:52:57;;;;;;;14.55;11.85;;;13.60;99.90;;;;;;5093917;28;20590;-64
2021/10/19 08:55:24;;;;;;;16.52;12.55;;;14.00;99.90;;;;;;5094061;28;20299;-64
2021/10/19 08:57:52;;;;;;;16.33;12.98;;;13.80;99.90;;;;;;5092912;28;20546;-64
2021/10/19 09:00:26;;;;;;;14.40;12.65;;;13.80;99.90;;;;;;5093357;28;20863;-64
2021/10/19 09:02:54;;;;;;;15.75;12.82;;;13.70;99.90;;;;;;5093850;28;20808;-65
2021/10/19 09:05:26;;;;;;;14.82;12.48;;;13.70;99.90;;;;;;5093884;28;20573;-64
2021/10/19 09:07:58;;;;;;;15.88;12.45;;;13.60;99.90;;;;;;5093847;28;20279;-64
2021/10/19 09:10:27;;;;;;;13.75;11.90;;;13.60;99.90;;;;;;5093283;28;20569;-64
2021/10/19 09:12:56;;;;;;;14.30;11.48;;;13.60;99.90;;;;;;5093666;28;20702;-64
2021/10/19 09:15:30;;;;;;;14.73;12.38;;;13.60;99.90;;;;;;5093594;28;20258;-64
2021/10/19 09:18:01;;;;;;;14.40;12.63;;;13.70;99.90;;;;;;5093406;28;20623;-64
2021/10/19 09:20:30;;;;;;;13.32;11.75;;;13.70;99.90;;;;;;5093870;28;20210;-64
2021/10/19 09:23:01;;;;;;;14.77;12.48;;;13.80;99.90;;;;;;5093683;28;20292;-64
2021/10/19 09:25:32;;;;;;;19.90;14.35;;;13.80;99.90;;;;;;5093406;28;20176;-63
2021/10/19 09:28:04;;;;;;;13.90;11.98;;;13.90;99.90;;;;;;5093641;28;20188;-64
2021/10/19 09:30:37;;;;;;;13.30;11.65;;;13.90;99.90;;;;;;5093260;28;20613;-66
2021/10/19 09:33:07;;;;;;;14.30;11.23;;;14.00;99.90;;;;;;5094030;28;20701;-63
2021/10/19 09:35:36;;;;;;;13.70;11.52;;;14.10;99.90;;;;;;5093573;28;20286;-63
2021/10/19 09:38:06;;;;;;;12.95;11.57;;;14.20;99.90;;;;;;5093120;28;20319;-64
2021/10/19 09:40:40;;;;;;;12.88;11.10;;;14.40;99.90;;;;;;5093167;28;20203;-64
2021/10/19 09:43:10;;;;;;;14.82;12.05;;;14.50;99.90;;;;;;5092991;28;20191;-64
2021/10/19 09:45:41;;;;;;;12.65;10.32;;;14.60;99.90;;;;;;5093026;28;20200;-63
2021/10/19 09:48:13;;;;;;;13.85;10.70;;;14.80;99.90;;;;;;5093324;28;20188;-64
2021/10/19 09:50:43;;;;;;;11.82;10.23;;;14.80;99.90;;;;;;5092931;28;20216;-64
2021/10/19 09:53:12;;;;;;;10.48;9.38;;;14.90;99.90;;;;;;5092818;28;20223;-64
2021/10/19 09:55:41;;;;;;;13.23;10.18;;;15.00;99.90;;;;;;5092999;28;20286;-64
2021/10/19 09:58:10;;;;;;;13.45;10.23;;;15.20;99.90;;;;;;5092934;28;20219;-64
2021/10/19 10:00:38;;;;;;;11.68;9.57;;;15.20;99.90;;;;;;5092703;28;20216;-64
2021/10/19 10:03:07;;;;;;;15.65;9.77;;;15.40;99.90;;;;;;5092795;28;20413;-64
2021/10/19 10:05:35;;;;;;;12.40;9.60;;;15.50;99.90;;;;;;5092733;28;20679;-64
2021/10/19 10:08:08;;;;;;;11.70;9.35;;;15.60;99.90;;;;;;5092674;28;20200;-64
2021/10/19 10:10:36;;;;;;;10.82;8.98;;;15.70;99.90;;;;;;5092077;28;20745;-65
2021/10/19 10:13:06;;;;;;;10.50;9.23;;;15.80;99.90;;;;;;5092858;28;20196;-64
2021/10/19 10:15:35;;;;;;;11.20;9.68;;;15.90;99.90;;;;;;5092488;28;20215;-64
2021/10/19 10:18:05;;;;;;;11.82;9.18;;;16.00;99.90;;;;;;5092619;28;20321;-66
2021/10/19 10:20:36;;;;;;;9.45;8.40;;;16.20;99.90;;;;;;5092794;28;20312;-64
2021/10/19 10:23:15;;;;;;;10.50;8.52;;;16.40;99.90;;;;;;5092615;28;20279;-64
2021/10/19 10:25:44;;;;;;;10.40;8.40;;;16.60;99.90;;;;;;5092448;28;20218;-64
2021/10/19 10:28:14;;;;;;;9.35;8.35;;;16.70;99.90;;;;;;5092627;28;20307;-64
2021/10/19 10:30:43;;;;;;;10.18;8.68;;;16.70;99.90;;;;;;5092412;28;20219;-64
2021/10/19 10:33:11;;;;;;;8.93;8.02;;;16.70;99.90;;;;;;5092558;28;20222;-64
2021/10/19 10:35:47;;;;;;;9.32;7.93;;;16.80;99.90;;;;;;5092769;28;20246;-65
2021/10/19 10:38:16;;;;;;;9.05;8.15;;;16.80;99.90;;;;;;5092255;28;20746;-64
2021/10/19 10:40:45;;;;;;;9.52;7.55;;;16.80;99.90;;;;;;5092151;28;20655;-64
2021/10/19 10:43:32;;;;;;;7.78;6.97;;;16.80;99.90;;;;;;5092458;28;20203;-64
2021/10/19 10:46:06;;;;;;;7.95;7.18;;;16.80;99.90;;;;;;5092024;28;20195;-64
2021/10/19 10:48:35;;;;;;;7.55;6.20;;;16.80;99.90;;;;;;5092033;28;20632;-64
2021/10/19 10:51:04;;;;;;;7.38;6.68;;;16.80;99.90;;;;;;5092402;28;20287;-64
2021/10/19 10:53:36;;;;;;;8.00;6.53;;;16.90;99.90;;;;;;5092233;28;20228;-63
2021/10/19 10:56:06;;;;;;;6.35;5.75;;;17.00;99.90;;;;;;5092095;28;20202;-64
2021/10/19 10:58:36;;;;;;;6.30;5.70;;;17.20;99.90;;;;;;5092365;28;20200;-64
2021/10/19 11:01:14;;;;;;;5.70;5.20;;;17.30;99.90;;;;;;5091807;28;20204;-66
2021/10/19 11:03:43;;;;;;;6.15;5.55;;;17.50;99.90;;;;;;5092258;28;20187;-65
2021/10/19 11:06:14;;;;;;;6.78;5.05;;;17.60;99.90;;;;;;5092219;28;20282;-64
2021/10/19 11:08:44;;;;;;;6.45;4.28;;;17.80;99.90;;;;;;5092193;28;20279;-64
2021/10/19 11:11:14;;;;;;;5.55;5.03;;;17.80;99.90;;;;;;5091835;28;20319;-65
2021/10/19 11:13:50;;;;;;;4.85;4.43;;;17.70;99.90;;;;;;5092051;28;20187;-64
2021/10/19 11:16:18;;;;;;;5.90;4.53;;;17.60;99.90;;;;;;5091614;28;20194;-64
2021/10/19 11:18:52;;;;;;;4.63;4.10;;;17.50;99.90;;;;;;5091699;28;20675;-64
2021/10/19 11:21:20;;;;;;;5.22;4.13;;;17.30;99.90;;;;;;5092697;28;20261;-64
2021/10/19 11:23:49;;;;;;;4.82;4.43;;;17.20;99.90;;;;;;5096196;28;20206;-64
2021/10/19 11:26:18;;;;;;;4.43;3.97;;;17.20;99.90;;;;;;5096238;28;20188;-64
2021/10/19 11:28:46;;;;;;;5.07;4.57;;;17.20;99.90;;;;;;5096590;28;20210;-67
2021/10/19 11:31:15;;;;;;;5.38;4.25;;;17.10;99.90;;;;;;5095799;28;20303;-66
2021/10/19 11:33:45;;;;;;;5.07;4.57;;;17.10;99.90;;;;;;5095643;28;20735;-67
2021/10/19 11:36:14;;;;;;;4.90;4.40;;;17.10;99.90;;;;;;5095520;28;20223;-67
2021/10/19 11:38:43;;;;;;;4.75;4.25;;;17.20;99.90;;;;;;5095783;28;20720;-68
2021/10/19 11:41:15;;;;;;;4.80;4.28;;;17.30;99.90;;;;;;5095440;28;20216;-68
2021/10/19 11:43:46;;;;;;;5.75;4.50;;;17.30;99.90;;;;;;5095695;28;20295;-67
2021/10/19 11:46:16;;;;;;;4.78;4.15;;;17.30;99.90;;;;;;5095103;28;20283;-68
2021/10/19 11:48:47;;;;;;;4.90;4.45;;;17.30;99.90;;;;;;5095196;28;20204;-67
2021/10/19 11:51:16;;;;;;;4.93;4.25;;;17.30;99.90;;;;;;5095086;28;20649;-67
2021/10/19 11:53:45;;;;;;;4.68;4.22;;;17.30;99.90;;;;;;5095093;28;20209;-67
2021/10/19 11:56:15;;;;;;;4.88;4.35;;;17.20;99.90;;;;;;5095053;28;20200;-65
2021/10/19 11:58:51;;;;;;;4.63;4.20;;;17.20;99.90;;;;;;5095323;28;20271;-65
2021/10/19 12:01:24;;;;;;;5.47;4.30;;;17.10;99.90;;;;;;5095236;28;20216;-65
2021/10/19 12:03:57;;;;;;;5.25;4.75;;;17.10;99.90;;;;;;5095032;28;20514;-64
2021/10/19 12:06:27;;;;;;;6.45;4.57;;;17.10;99.90;;;;;;5095158;28;20231;-65
2021/10/19 12:08:56;;;;;;;5.32;4.28;;;17.20;99.90;;;;;;5095442;28;20196;-64
2021/10/19 12:11:28;;;;;;;4.97;4.32;;;17.20;99.90;;;;;;5094847;28;20228;-65
2021/10/19 12:13:58;;;;;;;5.28;4.38;;;17.30;99.90;;;;;;5095251;28;20224;-65
2021/10/19 12:16:28;;;;;;;5.53;4.07;;;17.30;99.90;;;;;;5094858;28;20200;-64
2021/10/19 12:18:57;;;;;;;4.10;3.70;;;17.20;99.90;;;;;;5095185;28;20228;-65
2021/10/19 12:21:26;;;;;;;5.15;3.90;;;17.10;99.90;;;;;;5094918;28;20310;-64
2021/10/19 12:23:56;;;;;;;5.35;3.90;;;17.10;99.90;;;;;;5094884;28;20290;-65
2021/10/19 12:26:27;;;;;;;4.78;3.80;;;17.00;99.90;;;;;;5094726;28;20287;-64
2021/10/19 12:28:57;;;;;;;4.40;3.88;;;17.00;99.90;;;;;;5094844;28;20279;-63
2021/10/19 12:31:26;;;;;;;5.40;3.70;;;16.90;99.90;;;;;;5094836;28;20235;-64
2021/10/19 12:33:55;;;;;;;4.20;3.80;;;17.00;99.90;;;;;;5094606;28;20200;-64
2021/10/19 12:36:28;;;;;;;3.85;3.55;;;17.00;99.90;;;;;;5094424;28;20291;-65
2021/10/19 12:38:58;;;;;;;7.13;3.72;;;17.00;99.90;;;;;;5094328;28;20188;-64
2021/10/19 12:41:32;;;;;;;3.70;3.40;;;16.90;99.90;;;;;;5094524;28;20220;-64